Time;durP1;ratioP1;P1;durP2;ratioP2;P2;SDS_P1;SDS_P2;PMS_P1;PMS_P2;Temp;Humidity;BMP_temperature;BMP_pressure;BME280_temperature;BME280_humidity;BME280_pressure;Samples;Min_cycle;Max_cycle;Signal;HPM_P1;HPM_P2
2023/08/01 00:00:21;;;;;;;4.40;1.40;;;;;;;;;;4932178;29;20495;-68
2023/08/01 00:02:49;;;;;;;2.63;1.30;;;;;;;;;;4942432;29;20435;-68
2023/08/01 00:05:17;;;;;;;3.73;2.07;;;;;;;;;;4942913;29;20479;-68
2023/08/01 00:07:44;;;;;;;2.60;1.07;;;;;;;;;;4933285;29;20982;-68
2023/08/01 00:10:11;;;;;;;3.67;1.57;;;;;;;;;;4933758;29;20447;-68
2023/08/01 00:12:39;;;;;;;2.50;1.33;;;;;;;;;;4935534;29;20476;-68
2023/08/01 00:15:06;;;;;;;2.40;1.27;;;;;;;;;;4934619;29;20488;-68
2023/08/01 00:17:34;;;;;;;2.80;1.20;;;;;;;;;;4932415;29;20490;-68
2023/08/01 00:20:01;;;;;;;4.60;1.30;;;;;;;;;;4935299;29;20518;-68
2023/08/01 00:22:30;;;;;;;2.90;1.43;;;;;;;;;;4933629;29;20467;-68
2023/08/01 00:24:57;;;;;;;3.90;1.53;;;;;;;;;;4933494;29;20542;-68
2023/08/01 00:27:25;;;;;;;2.80;1.37;;;;;;;;;;4933600;29;20495;-68
2023/08/01 00:29:52;;;;;;;3.63;1.90;;;;;;;;;;4935903;29;20451;-68
2023/08/01 00:32:19;;;;;;;3.30;1.50;;;;;;;;;;4936002;29;20471;-68
2023/08/01 00:34:46;;;;;;;2.90;1.63;;;;;;;;;;4933780;29;20562;-68
2023/08/01 00:37:14;;;;;;;3.70;1.20;;;;;;;;;;4935717;29;20510;-68
2023/08/01 00:39:43;;;;;;;5.60;2.07;;;;;;;;;;4937329;29;20542;-68
2023/08/01 00:42:10;;;;;;;3.60;1.23;;;;;;;;;;4936109;29;20443;-68
2023/08/01 00:44:37;;;;;;;2.80;1.40;;;;;;;;;;4939382;29;20464;-68
2023/08/01 00:47:04;;;;;;;2.73;1.30;;;;;;;;;;4936309;29;20470;-68
2023/08/01 00:49:31;;;;;;;3.10;1.63;;;;;;;;;;4935899;29;20546;-68
2023/08/01 00:51:59;;;;;;;3.33;1.63;;;;;;;;;;4938314;29;20446;-68
2023/08/01 00:54:26;;;;;;;2.70;1.50;;;;;;;;;;4936263;29;20573;-68
2023/08/01 00:56:55;;;;;;;2.23;1.00;;;;;;;;;;4937780;29;20467;-68
2023/08/01 00:59:22;;;;;;;4.60;1.73;;;;;;;;;;4936288;29;20487;-69
2023/08/01 01:01:49;;;;;;;3.70;1.67;;;;;;;;;;4939365;29;20451;-67
2023/08/01 01:04:16;;;;;;;3.23;1.57;;;;;;;;;;4938484;29;20530;-67
2023/08/01 01:06:46;;;;;;;2.63;1.30;;;;;;;;;;4938200;29;20893;-67
2023/08/01 01:09:17;;;;;;;2.73;1.40;;;;;;;;;;4935416;29;20460;-67
2023/08/01 01:11:44;;;;;;;3.00;1.50;;;;;;;;;;4936220;29;20442;-67
2023/08/01 01:14:13;;;;;;;3.50;1.50;;;;;;;;;;4937627;29;20525;-69
2023/08/01 01:16:40;;;;;;;2.93;1.20;;;;;;;;;;4936482;29;20487;-69
2023/08/01 01:19:08;;;;;;;2.50;1.27;;;;;;;;;;4935438;29;20463;-69
2023/08/01 01:21:39;;;;;;;4.50;1.80;;;;;;;;;;4936753;29;20846;-69
2023/08/01 01:24:07;;;;;;;2.93;1.53;;;;;;;;;;4934886;29;20882;-66
2023/08/01 01:26:34;;;;;;;2.60;1.20;;;;;;;;;;4938631;29;20468;-66
2023/08/01 01:29:02;;;;;;;4.70;1.27;;;;;;;;;;4934090;29;20471;-67
2023/08/01 01:31:29;;;;;;;3.70;1.63;;;;;;;;;;4937877;29;20484;-68
2023/08/01 01:33:56;;;;;;;3.73;1.50;;;;;;;;;;4934500;29;20567;-68
2023/08/01 01:36:24;;;;;;;2.70;1.60;;;;;;;;;;4934465;29;20993;-68
2023/08/01 01:38:52;;;;;;;2.57;1.00;;;;;;;;;;4934533;29;21039;-68
2023/08/01 01:41:19;;;;;;;3.17;1.40;;;;;;;;;;4938126;29;20483;-69
2023/08/01 01:43:47;;;;;;;4.17;1.20;;;;;;;;;;4935620;29;20816;-69
2023/08/01 01:46:14;;;;;;;2.50;1.40;;;;;;;;;;4938158;29;20474;-69
2023/08/01 01:48:42;;;;;;;3.00;1.30;;;;;;;;;;4936798;29;20581;-68
2023/08/01 01:51:09;;;;;;;3.23;1.60;;;;;;;;;;4938313;29;20832;-68
2023/08/01 01:53:36;;;;;;;2.03;0.97;;;;;;;;;;4937435;29;20511;-68
2023/08/01 01:56:05;;;;;;;2.47;1.10;;;;;;;;;;4937544;29;20542;-68
2023/08/01 01:58:32;;;;;;;2.77;1.40;;;;;;;;;;4933763;29;20480;-68
2023/08/01 02:00:59;;;;;;;3.10;1.00;;;;;;;;;;4936227;29;20447;-67
2023/08/01 02:03:26;;;;;;;2.40;1.00;;;;;;;;;;4936207;29;20546;-69
2023/08/01 02:05:54;;;;;;;3.47;1.50;;;;;;;;;;4938612;29;20455;-70
2023/08/01 02:08:21;;;;;;;3.43;1.20;;;;;;;;;;4940112;29;20498;-68
2023/08/01 02:10:49;;;;;;;3.23;1.50;;;;;;;;;;4939257;29;20471;-67
2023/08/01 02:13:17;;;;;;;2.97;1.57;;;;;;;;;;4931945;29;20470;-69
2023/08/01 02:15:45;;;;;;;2.50;1.13;;;;;;;;;;4935764;29;20999;-68
2023/08/01 02:18:12;;;;;;;3.07;1.70;;;;;;;;;;4935368;29;20649;-68
2023/08/01 02:20:39;;;;;;;3.50;1.77;;;;;;;;;;4935248;29;20954;-69
2023/08/01 02:23:06;;;;;;;2.90;1.30;;;;;;;;;;4933077;29;20492;-68
2023/08/01 02:25:33;;;;;;;3.07;1.43;;;;;;;;;;4938230;29;20526;-69
2023/08/01 02:28:00;;;;;;;2.30;1.50;;;;;;;;;;4930623;29;20482;-69
2023/08/01 02:30:29;;;;;;;2.93;1.30;;;;;;;;;;4930561;29;20462;-69
2023/08/01 02:32:56;;;;;;;3.10;1.47;;;;;;;;;;4931492;29;20496;-69
2023/08/01 02:35:23;;;;;;;8.80;1.40;;;;;;;;;;4931093;29;20489;-70
2023/08/01 02:37:50;;;;;;;5.70;1.73;;;;;;;;;;4929575;29;20478;-69
2023/08/01 02:40:17;;;;;;;3.50;1.33;;;;;;;;;;4934042;29;20907;-70
2023/08/01 02:42:44;;;;;;;3.30;1.60;;;;;;;;;;4937597;29;20455;-67
2023/08/01 02:45:12;;;;;;;2.93;1.57;;;;;;;;;;4935832;29;20468;-68
2023/08/01 02:47:40;;;;;;;2.23;1.20;;;;;;;;;;4934250;29;20482;-67
2023/08/01 02:50:08;;;;;;;2.70;1.60;;;;;;;;;;4928436;29;20555;-69
2023/08/01 02:52:35;;;;;;;3.00;1.47;;;;;;;;;;4931162;29;20456;-69
2023/08/01 02:55:02;;;;;;;2.97;1.70;;;;;;;;;;4930440;29;20570;-69
2023/08/01 02:57:29;;;;;;;3.10;1.67;;;;;;;;;;4928775;29;20519;-69
2023/08/01 02:59:56;;;;;;;4.47;1.50;;;;;;;;;;4928629;29;20472;-68
2023/08/01 03:02:23;;;;;;;4.60;1.77;;;;;;;;;;4930754;29;20842;-67
2023/08/01 03:04:52;;;;;;;2.07;0.90;;;;;;;;;;4930708;29;20466;-68
2023/08/01 03:07:19;;;;;;;3.20;1.37;;;;;;;;;;4926299;29;20825;-68
2023/08/01 03:09:46;;;;;;;2.53;1.23;;;;;;;;;;4926062;29;20558;-69
2023/08/01 03:12:13;;;;;;;3.00;1.63;;;;;;;;;;4926110;29;20546;-68
2023/08/01 03:14:43;;;;;;;3.97;1.67;;;;;;;;;;4931788;29;20484;-67
2023/08/01 03:17:10;;;;;;;3.10;1.33;;;;;;;;;;4929891;29;20483;-68
2023/08/01 03:19:37;;;;;;;3.07;1.70;;;;;;;;;;4929563;29;20460;-68
2023/08/01 03:22:07;;;;;;;4.57;2.03;;;;;;;;;;4932459;29;20546;-68
2023/08/01 03:24:34;;;;;;;3.77;1.90;;;;;;;;;;4930973;29;20459;-68
2023/08/01 03:27:01;;;;;;;2.80;1.70;;;;;;;;;;4931461;29;20485;-68
2023/08/01 03:29:28;;;;;;;3.57;1.63;;;;;;;;;;4931598;29;20833;-67
2023/08/01 03:31:56;;;;;;;2.60;1.87;;;;;;;;;;4928004;29;20596;-68
2023/08/01 03:34:23;;;;;;;3.47;1.80;;;;;;;;;;4929636;29;20554;-68
2023/08/01 03:36:51;;;;;;;2.57;1.40;;;;;;;;;;4932597;29;21108;-68
2023/08/01 03:39:20;;;;;;;3.27;1.60;;;;;;;;;;4929066;29;20495;-68
2023/08/01 03:41:47;;;;;;;2.10;1.03;;;;;;;;;;4931285;29;20468;-68
2023/08/01 03:44:15;;;;;;;3.60;1.90;;;;;;;;;;4929264;29;20480;-68
2023/08/01 03:46:43;;;;;;;2.30;1.47;;;;;;;;;;4930424;29;20989;-69
2023/08/01 03:49:10;;;;;;;3.67;2.10;;;;;;;;;;4927483;29;20546;-68
2023/08/01 03:51:37;;;;;;;2.00;1.23;;;;;;;;;;4928156;29;20523;-68
2023/08/01 03:54:04;;;;;;;3.37;1.40;;;;;;;;;;4926913;29;20900;-68
2023/08/01 03:56:33;;;;;;;2.73;1.30;;;;;;;;;;4930702;29;20546;-68
2023/08/01 03:59:00;;;;;;;3.53;1.60;;;;;;;;;;4930072;29;20878;-68
2023/08/01 04:01:27;;;;;;;2.83;1.37;;;;;;;;;;4953973;23;20515;-69
2023/08/01 04:03:54;;;;;;;3.23;1.67;;;;;;;;;;4928607;29;20472;-68
2023/08/01 04:06:21;;;;;;;4.00;1.93;;;;;;;;;;4922669;29;20488;-69
2023/08/01 04:08:49;;;;;;;2.90;1.33;;;;;;;;;;4912121;29;20516;-69
2023/08/01 04:11:16;;;;;;;2.80;1.40;;;;;;;;;;4908950;29;20741;-69
2023/08/01 04:13:45;;;;;;;2.60;1.63;;;;;;;;;;4907446;29;21063;-69
2023/08/01 04:16:12;;;;;;;2.83;2.07;;;;;;;;;;4907353;29;20480;-69
2023/08/01 04:18:39;;;;;;;2.80;1.27;;;;;;;;;;4907024;29;20469;-69
2023/08/01 04:21:07;;;;;;;4.20;1.47;;;;;;;;;;4908261;29;20471;-69
2023/08/01 04:23:34;;;;;;;2.50;1.10;;;;;;;;;;4909747;29;21182;-69
2023/08/01 04:26:05;;;;;;;2.83;1.50;;;;;;;;;;4910687;29;20567;-69
2023/08/01 04:28:33;;;;;;;3.33;1.70;;;;;;;;;;4906737;29;20701;-69
2023/08/01 04:31:01;;;;;;;2.50;1.30;;;;;;;;;;4911696;29;20547;-69
2023/08/01 04:33:28;;;;;;;4.77;1.97;;;;;;;;;;4907495;29;20460;-69
2023/08/01 04:35:56;;;;;;;4.07;1.60;;;;;;;;;;4909158;29;20480;-69
2023/08/01 04:38:23;;;;;;;2.97;1.77;;;;;;;;;;4905464;29;20461;-69
2023/08/01 04:40:50;;;;;;;2.60;1.47;;;;;;;;;;4907450;29;20449;-69
2023/08/01 04:43:17;;;;;;;2.40;1.43;;;;;;;;;;4909858;29;20460;-69
2023/08/01 04:45:44;;;;;;;2.03;0.90;;;;;;;;;;4907673;29;20528;-69
2023/08/01 04:48:13;;;;;;;2.90;1.47;;;;;;;;;;4908529;29;20469;-69
2023/08/01 04:50:40;;;;;;;3.70;1.00;;;;;;;;;;4909141;29;20461;-69
2023/08/01 04:53:07;;;;;;;1.90;1.03;;;;;;;;;;4906568;29;20461;-69
2023/08/01 04:55:35;;;;;;;3.30;1.47;;;;;;;;;;4910997;29;20571;-69
2023/08/01 04:58:02;;;;;;;4.57;1.47;;;;;;;;;;4909025;29;20466;-69
2023/08/01 05:00:29;;;;;;;3.90;1.40;;;;;;;;;;4912213;29;20567;-69
2023/08/01 05:02:56;;;;;;;2.50;1.00;;;;;;;;;;4910035;29;20572;-69
2023/08/01 05:05:24;;;;;;;2.00;0.90;;;;;;;;;;4908699;29;20489;-70
2023/08/01 05:07:52;;;;;;;2.57;1.03;;;;;;;;;;4911038;29;20468;-70
2023/08/01 05:10:19;;;;;;;2.37;1.10;;;;;;;;;;4905666;29;20466;-70
2023/08/01 05:12:46;;;;;;;2.30;0.90;;;;;;;;;;4912771;29;20823;-70
2023/08/01 05:15:13;;;;;;;3.30;1.37;;;;;;;;;;4907438;29;20487;-70
2023/08/01 05:17:41;;;;;;;2.80;1.30;;;;;;;;;;4906219;29;20499;-70
2023/08/01 05:20:08;;;;;;;3.23;1.57;;;;;;;;;;4905673;29;20495;-70
2023/08/01 05:22:37;;;;;;;3.93;2.03;;;;;;;;;;4912192;29;20499;-71
2023/08/01 05:25:05;;;;;;;3.27;1.27;;;;;;;;;;4909445;29;21007;-70
2023/08/01 05:27:34;;;;;;;2.60;1.40;;;;;;;;;;4914450;29;20574;-70
2023/08/01 05:30:01;;;;;;;3.27;1.50;;;;;;;;;;4912599;29;20469;-70
2023/08/01 05:32:28;;;;;;;4.00;2.07;;;;;;;;;;4915085;29;20537;-70
2023/08/01 05:34:55;;;;;;;2.47;1.33;;;;;;;;;;4912488;29;20476;-69
2023/08/01 05:37:22;;;;;;;2.07;1.13;;;;;;;;;;4912972;29;20580;-70
2023/08/01 05:39:51;;;;;;;2.63;1.17;;;;;;;;;;4908002;29;20476;-70
2023/08/01 05:42:18;;;;;;;2.23;1.50;;;;;;;;;;4910913;29;20440;-68
2023/08/01 05:44:45;;;;;;;4.50;1.87;;;;;;;;;;4910895;29;20571;-66
2023/08/01 05:47:13;;;;;;;2.17;1.13;;;;;;;;;;4909056;29;20484;-66
2023/08/01 05:49:41;;;;;;;3.20;1.50;;;;;;;;;;4906199;29;20843;-66
2023/08/01 05:52:08;;;;;;;2.80;1.50;;;;;;;;;;4907956;29;20924;-65
2023/08/01 05:54:35;;;;;;;2.70;1.60;;;;;;;;;;4906749;29;20462;-66
2023/08/01 05:57:04;;;;;;;3.20;1.57;;;;;;;;;;4910316;29;20903;-67
2023/08/01 05:59:32;;;;;;;3.27;1.80;;;;;;;;;;4910462;29;20457;-67
2023/08/01 06:01:59;;;;;;;2.23;1.10;;;;;;;;;;4909558;29;20524;-68
2023/08/01 06:04:26;;;;;;;4.00;1.30;;;;;;;;;;4911005;29;20551;-67
2023/08/01 06:06:53;;;;;;;3.20;2.00;;;;;;;;;;4915725;29;20488;-67
2023/08/01 06:09:20;;;;;;;7.53;1.70;;;;;;;;;;4915441;29;20556;-67
2023/08/01 06:11:48;;;;;;;3.10;1.67;;;;;;;;;;4913369;29;20553;-67
2023/08/01 06:14:16;;;;;;;3.30;1.10;;;;;;;;;;4924051;29;20463;-67
2023/08/01 06:16:43;;;;;;;3.90;1.60;;;;;;;;;;4917839;29;20498;-67
2023/08/01 06:19:10;;;;;;;2.50;1.57;;;;;;;;;;4916056;29;20537;-68
2023/08/01 06:21:38;;;;;;;3.37;1.93;;;;;;;;;;4916547;29;20447;-67
2023/08/01 06:24:05;;;;;;;2.27;1.37;;;;;;;;;;4915947;29;20463;-66
2023/08/01 06:26:32;;;;;;;2.60;1.97;;;;;;;;;;4914943;29;20527;-67
2023/08/01 06:28:59;;;;;;;4.37;2.07;;;;;;;;;;4911261;29;20673;-68
2023/08/01 06:31:29;;;;;;;2.33;1.27;;;;;;;;;;4912587;29;20468;-68
2023/08/01 06:33:57;;;;;;;4.10;2.00;;;;;;;;;;4915645;29;20459;-68
2023/08/01 06:36:24;;;;;;;2.97;1.37;;;;;;;;;;4914380;29;20544;-68
2023/08/01 06:38:51;;;;;;;5.27;2.00;;;;;;;;;;4917396;29;20460;-68
2023/08/01 06:41:18;;;;;;;5.53;2.07;;;;;;;;;;4913061;29;20503;-68
2023/08/01 06:43:46;;;;;;;3.40;1.77;;;;;;;;;;4914616;29;20548;-68
2023/08/01 06:46:13;;;;;;;2.67;1.50;;;;;;;;;;4912463;29;20481;-69
2023/08/01 06:48:41;;;;;;;3.10;1.30;;;;;;;;;;4916089;29;20467;-69
2023/08/01 06:51:10;;;;;;;3.43;1.90;;;;;;;;;;4914040;29;20499;-69
2023/08/01 06:53:37;;;;;;;4.57;2.03;;;;;;;;;;4911051;29;20461;-69
2023/08/01 06:56:04;;;;;;;3.53;1.53;;;;;;;;;;4911313;29;20524;-69
2023/08/01 06:58:31;;;;;;;6.20;2.20;;;;;;;;;;4915032;29;20487;-69
2023/08/01 07:00:59;;;;;;;3.87;2.20;;;;;;;;;;4913118;29;20472;-69
2023/08/01 07:03:26;;;;;;;4.03;2.37;;;;;;;;;;4912076;29;20470;-68
2023/08/01 07:05:54;;;;;;;4.40;2.10;;;;;;;;;;4917832;29;20472;-69
2023/08/01 07:08:21;;;;;;;4.47;2.23;;;;;;;;;;4918413;29;21058;-69
2023/08/01 07:10:48;;;;;;;5.00;2.10;;;;;;;;;;4917605;29;20476;-68
2023/08/01 07:13:16;;;;;;;6.03;2.37;;;;;;;;;;4918075;29;20544;-69
2023/08/01 07:15:43;;;;;;;3.30;1.67;;;;;;;;;;4908475;29;20548;-68
2023/08/01 07:18:11;;;;;;;3.60;1.80;;;;;;;;;;4914581;29;20897;-68
2023/08/01 07:20:38;;;;;;;4.53;1.93;;;;;;;;;;4911439;29;20488;-68
2023/08/01 07:23:06;;;;;;;3.80;2.07;;;;;;;;;;4914100;29;20477;-68
2023/08/01 07:25:33;;;;;;;4.80;1.80;;;;;;;;;;4909924;29;20516;-68
2023/08/01 07:28:01;;;;;;;2.90;1.73;;;;;;;;;;4913810;29;20464;-68
2023/08/01 07:30:29;;;;;;;4.47;2.07;;;;;;;;;;4908015;29;20472;-68
2023/08/01 07:32:56;;;;;;;2.90;1.77;;;;;;;;;;4914386;29;20909;-68
2023/08/01 07:35:23;;;;;;;4.30;1.80;;;;;;;;;;4909558;29;20847;-68
2023/08/01 07:37:50;;;;;;;4.10;2.03;;;;;;;;;;4916561;29;20948;-68
2023/08/01 07:40:18;;;;;;;4.57;2.53;;;;;;;;;;4913566;29;20466;-68
2023/08/01 07:42:46;;;;;;;3.10;1.90;;;;;;;;;;4915280;29;20465;-68
2023/08/01 07:45:13;;;;;;;6.57;1.60;;;;;;;;;;4908534;29;20469;-68
2023/08/01 07:47:41;;;;;;;3.90;2.13;;;;;;;;;;4912186;29;21008;-68
2023/08/01 07:50:08;;;;;;;4.50;2.13;;;;;;;;;;4912543;29;20467;-69
2023/08/01 07:52:35;;;;;;;2.47;1.23;;;;;;;;;;4912605;29;20833;-68
2023/08/01 07:55:02;;;;;;;2.70;1.60;;;;;;;;;;4908597;29;20496;-69
2023/08/01 07:57:31;;;;;;;4.03;2.00;;;;;;;;;;4910646;29;20487;-68
2023/08/01 07:59:58;;;;;;;3.03;1.60;;;;;;;;;;4914450;29;20474;-69
2023/08/01 08:02:25;;;;;;;4.13;1.40;;;;;;;;;;4914915;29;20464;-69
2023/08/01 08:04:52;;;;;;;2.67;1.03;;;;;;;;;;4912566;29;20501;-69
2023/08/01 08:07:19;;;;;;;3.00;1.13;;;;;;;;;;4912182;29;20575;-69
2023/08/01 08:09:46;;;;;;;2.80;1.30;;;;;;;;;;4911421;29;20512;-68
2023/08/01 08:12:14;;;;;;;2.40;0.90;;;;;;;;;;4913173;29;20465;-68
2023/08/01 08:14:42;;;;;;;3.13;1.27;;;;;;;;;;4911128;29;20474;-70
2023/08/01 08:17:09;;;;;;;2.37;1.00;;;;;;;;;;4913883;29;20496;-69
2023/08/01 08:19:37;;;;;;;4.27;1.10;;;;;;;;;;4924891;29;20460;-68
2023/08/01 08:22:04;;;;;;;2.70;1.43;;;;;;;;;;4924280;29;20449;-69
2023/08/01 08:24:31;;;;;;;2.90;1.10;;;;;;;;;;4913382;29;20468;-69
2023/08/01 08:26:58;;;;;;;2.57;0.80;;;;;;;;;;4912221;29;20878;-69
2023/08/01 08:29:26;;;;;;;5.03;1.10;;;;;;;;;;4911830;29;20477;-69
2023/08/01 08:31:55;;;;;;;2.30;0.90;;;;;;;;;;4916522;29;20456;-69
2023/08/01 08:34:22;;;;;;;2.50;1.20;;;;;;;;;;4915310;29;20488;-69
2023/08/01 08:36:49;;;;;;;2.43;1.30;;;;;;;;;;4912315;29;20492;-69
2023/08/01 08:39:17;;;;;;;2.40;1.50;;;;;;;;;;4911992;29;20564;-69
2023/08/01 08:41:47;;;;;;;3.30;1.73;;;;;;;;;;4914476;29;20479;-69
2023/08/01 08:44:16;;;;;;;2.70;1.30;;;;;;;;;;4913625;29;20457;-69
2023/08/01 08:46:43;;;;;;;2.50;1.17;;;;;;;;;;4910224;29;20476;-69
2023/08/01 08:49:15;;;;;;;2.37;1.00;;;;;;;;;;4910871;29;20471;-70
2023/08/01 08:51:45;;;;;;;3.23;1.40;;;;;;;;;;4909136;29;20460;-70
2023/08/01 08:54:13;;;;;;;2.47;0.90;;;;;;;;;;4901567;29;21004;-70
2023/08/01 08:56:40;;;;;;;2.80;1.20;;;;;;;;;;4911794;29;20874;-70
2023/08/01 08:59:10;;;;;;;2.47;1.30;;;;;;;;;;4916027;29;20504;-70
2023/08/01 09:01:37;;;;;;;2.80;1.30;;;;;;;;;;4914510;29;20971;-68
2023/08/01 09:04:04;;;;;;;5.53;1.57;;;;;;;;;;4918410;29;21006;-68
2023/08/01 09:06:33;;;;;;;3.20;1.00;;;;;;;;;;4916989;29;21001;-68
2023/08/01 09:09:04;;;;;;;1.97;0.70;;;;;;;;;;4917570;29;20433;-69
2023/08/01 09:11:36;;;;;;;3.80;1.37;;;;;;;;;;4913125;29;20469;-69
2023/08/01 09:14:04;;;;;;;2.53;1.10;;;;;;;;;;4907958;29;20588;-71
2023/08/01 09:16:31;;;;;;;3.00;1.13;;;;;;;;;;4915447;29;20480;-69
2023/08/01 09:18:58;;;;;;;2.20;1.10;;;;;;;;;;4919296;29;20476;-68
2023/08/01 09:21:26;;;;;;;1.80;0.80;;;;;;;;;;4914165;29;20475;-69
2023/08/01 09:23:54;;;;;;;2.67;1.30;;;;;;;;;;4911588;29;20483;-69
2023/08/01 09:26:22;;;;;;;3.27;1.00;;;;;;;;;;4913187;29;20560;-69
2023/08/01 09:28:56;;;;;;;2.67;1.20;;;;;;;;;;4916896;29;20451;-69
2023/08/01 09:31:28;;;;;;;2.10;1.10;;;;;;;;;;4910505;29;20531;-69
2023/08/01 09:33:55;;;;;;;3.53;1.60;;;;;;;;;;4916986;29;20451;-69
2023/08/01 09:36:23;;;;;;;2.47;1.13;;;;;;;;;;4917181;29;20575;-70
2023/08/01 09:38:50;;;;;;;1.90;0.70;;;;;;;;;;4916771;29;20445;-68
2023/08/01 09:41:21;;;;;;;2.23;1.10;;;;;;;;;;4916584;29;20545;-71
2023/08/01 09:43:48;;;;;;;1.70;0.70;;;;;;;;;;4913864;29;20456;-70
2023/08/01 09:46:16;;;;;;;2.33;1.17;;;;;;;;;;4909270;29;20476;-69
2023/08/01 09:48:43;;;;;;;2.07;0.90;;;;;;;;;;4915728;29;21018;-72
2023/08/01 09:51:11;;;;;;;1.70;0.70;;;;;;;;;;4918142;29;20931;-69
2023/08/01 09:53:48;;;;;;;2.23;0.70;;;;;;;;;;4916720;29;20466;-69
2023/08/01 09:56:17;;;;;;;1.80;0.80;;;;;;;;;;4918085;29;20480;-68
2023/08/01 09:58:46;;;;;;;2.20;0.93;;;;;;;;;;4911574;29;20843;-69
2023/08/01 10:01:14;;;;;;;2.33;0.70;;;;;;;;;;4915516;29;20476;-69
2023/08/01 10:03:45;;;;;;;2.63;0.83;;;;;;;;;;4914913;29;20463;-68
2023/08/01 10:06:13;;;;;;;1.80;1.10;;;;;;;;;;4914977;29;20479;-70
2023/08/01 10:08:41;;;;;;;1.73;0.60;;;;;;;;;;4915823;29;21710;-69
2023/08/01 10:11:08;;;;;;;1.40;0.40;;;;;;;;;;4916665;29;20463;-69
2023/08/01 10:13:36;;;;;;;2.80;0.73;;;;;;;;;;4916375;29;20951;-68
2023/08/01 10:16:05;;;;;;;2.27;1.00;;;;;;;;;;4912193;29;20476;-69
2023/08/01 10:18:32;;;;;;;1.70;0.50;;;;;;;;;;4915358;29;20527;-68
2023/08/01 10:20:59;;;;;;;1.50;0.50;;;;;;;;;;4917936;29;20535;-68
2023/08/01 10:23:27;;;;;;;1.47;0.50;;;;;;;;;;4917809;29;20452;-69
2023/08/01 10:25:54;;;;;;;1.83;0.70;;;;;;;;;;4920176;29;20561;-70
2023/08/01 10:28:32;;;;;;;1.70;0.60;;;;;;;;;;4919342;29;20479;-69
2023/08/01 10:31:08;;;;;;;1.60;0.50;;;;;;;;;;4916423;29;20487;-69
2023/08/01 10:33:36;;;;;;;1.43;0.47;;;;;;;;;;4915887;29;20793;-69
2023/08/01 10:36:13;;;;;;;1.67;0.50;;;;;;;;;;4909555;29;20512;-68
2023/08/01 10:38:45;;;;;;;1.93;0.60;;;;;;;;;;4913296;29;20464;-69
2023/08/01 10:41:19;;;;;;;1.70;0.50;;;;;;;;;;4916778;29;20456;-68
2023/08/01 10:43:46;;;;;;;1.53;0.47;;;;;;;;;;4916786;29;20453;-68
2023/08/01 10:46:15;;;;;;;1.70;0.60;;;;;;;;;;4917143;29;20511;-68
2023/08/01 10:48:53;;;;;;;2.03;0.60;;;;;;;;;;4920235;29;20483;-69
2023/08/01 10:51:20;;;;;;;1.50;0.50;;;;;;;;;;4914254;29;20460;-69
2023/08/01 10:53:47;;;;;;;1.60;0.60;;;;;;;;;;4915695;29;20463;-68
2023/08/01 10:56:19;;;;;;;1.73;0.57;;;;;;;;;;4911056;29;20849;-69
2023/08/01 10:58:46;;;;;;;1.63;0.50;;;;;;;;;;4916250;29;20456;-68
2023/08/01 11:01:15;;;;;;;1.50;0.50;;;;;;;;;;4914537;29;20476;-71
2023/08/01 11:03:44;;;;;;;1.50;0.50;;;;;;;;;;4915171;29;20472;-68
2023/08/01 11:06:11;;;;;;;1.70;0.50;;;;;;;;;;4912097;29;20491;-68
2023/08/01 11:08:38;;;;;;;1.90;0.70;;;;;;;;;;4906944;29;20468;-68
2023/08/01 11:11:06;;;;;;;1.40;0.40;;;;;;;;;;4909264;29;20502;-68
2023/08/01 11:13:34;;;;;;;1.60;0.60;;;;;;;;;;4909051;29;20452;-68
2023/08/01 11:16:02;;;;;;;1.77;0.70;;;;;;;;;;4912386;29;20484;-68
2023/08/01 11:18:31;;;;;;;1.90;0.60;;;;;;;;;;4908911;29;20468;-69
2023/08/01 11:20:58;;;;;;;1.60;0.60;;;;;;;;;;4911925;29;20461;-69
2023/08/01 11:23:29;;;;;;;1.40;0.50;;;;;;;;;;4913402;29;20469;-68
2023/08/01 11:25:57;;;;;;;6.03;0.93;;;;;;;;;;4913960;29;20541;-68
2023/08/01 11:28:24;;;;;;;1.80;0.90;;;;;;;;;;4914838;29;20448;-68
2023/08/01 11:30:51;;;;;;;1.70;0.60;;;;;;;;;;4912013;29;20548;-68
2023/08/01 11:33:20;;;;;;;1.57;0.77;;;;;;;;;;4914675;29;20471;-68
2023/08/01 11:35:52;;;;;;;1.70;0.70;;;;;;;;;;4918415;29;20554;-68
2023/08/01 11:38:19;;;;;;;1.40;0.60;;;;;;;;;;4916592;29;20484;-68
2023/08/01 11:40:46;;;;;;;1.77;0.60;;;;;;;;;;4911309;29;20492;-68
2023/08/01 11:43:13;;;;;;;1.33;0.50;;;;;;;;;;4915741;29;20493;-68
2023/08/01 11:45:49;;;;;;;1.40;0.60;;;;;;;;;;4910461;29;20536;-68
2023/08/01 11:48:16;;;;;;;1.40;0.50;;;;;;;;;;4919190;29;20539;-69
2023/08/01 11:50:45;;;;;;;1.80;0.60;;;;;;;;;;4923197;29;20500;-67
2023/08/01 11:53:20;;;;;;;1.70;0.60;;;;;;;;;;4928704;29;20487;-69
2023/08/01 11:55:49;;;;;;;1.40;0.50;;;;;;;;;;4919631;29;20496;-71
2023/08/01 11:58:16;;;;;;;3.30;0.77;;;;;;;;;;4918211;29;20476;-68
2023/08/01 12:00:43;;;;;;;1.60;0.70;;;;;;;;;;4915446;29;20468;-68
2023/08/01 12:03:13;;;;;;;2.10;0.60;;;;;;;;;;4918464;29;20444;-69
2023/08/01 12:05:45;;;;;;;1.40;0.53;;;;;;;;;;4914731;29;20457;-68
2023/08/01 12:08:13;;;;;;;2.67;0.90;;;;;;;;;;4912102;29;20543;-69
2023/08/01 12:10:42;;;;;;;1.80;0.73;;;;;;;;;;4910096;29;20461;-69
2023/08/01 12:13:20;;;;;;;1.40;0.70;;;;;;;;;;4914540;29;20496;-69
2023/08/01 12:15:48;;;;;;;1.50;0.77;;;;;;;;;;4906425;29;20523;-69
2023/08/01 12:18:20;;;;;;;1.60;0.80;;;;;;;;;;4912212;29;20481;-69
2023/08/01 12:20:48;;;;;;;1.40;0.67;;;;;;;;;;4907056;29;20865;-69
2023/08/01 12:23:15;;;;;;;1.70;0.80;;;;;;;;;;4912704;29;20484;-69
2023/08/01 12:25:44;;;;;;;2.47;0.63;;;;;;;;;;4907154;29;20492;-70
2023/08/01 12:28:11;;;;;;;1.50;0.67;;;;;;;;;;4914804;29;20497;-69
2023/08/01 12:30:41;;;;;;;1.73;0.70;;;;;;;;;;4922706;29;20485;-69
2023/08/01 12:33:08;;;;;;;1.60;0.50;;;;;;;;;;4919101;29;20487;-69
2023/08/01 12:35:35;;;;;;;1.60;0.67;;;;;;;;;;4915380;29;20987;-69
2023/08/01 12:38:02;;;;;;;1.70;0.70;;;;;;;;;;4913988;29;20568;-69
2023/08/01 12:40:29;;;;;;;2.77;1.17;;;;;;;;;;4915004;29;20951;-70
2023/08/01 12:42:58;;;;;;;1.60;0.83;;;;;;;;;;4916726;29;20476;-69
2023/08/01 12:45:25;;;;;;;1.60;0.60;;;;;;;;;;4912670;29;20541;-69
2023/08/01 12:47:52;;;;;;;2.60;0.67;;;;;;;;;;4913130;29;20943;-69
2023/08/01 12:50:19;;;;;;;1.40;0.50;;;;;;;;;;4915302;29;20460;-68
2023/08/01 12:52:47;;;;;;;1.80;0.60;;;;;;;;;;4918650;29;20440;-69
2023/08/01 12:55:14;;;;;;;1.53;0.80;;;;;;;;;;4913873;29;20551;-69
2023/08/01 12:57:41;;;;;;;2.30;1.10;;;;;;;;;;4914221;29;20570;-69
2023/08/01 13:00:11;;;;;;;1.23;0.60;;;;;;;;;;4910287;29;20954;-69
2023/08/01 13:02:38;;;;;;;1.37;0.60;;;;;;;;;;4909128;29;20461;-69
2023/08/01 13:05:06;;;;;;;1.40;0.70;;;;;;;;;;4914840;29;20508;-71
2023/08/01 13:07:34;;;;;;;2.10;0.90;;;;;;;;;;4916704;29;20624;-69
2023/08/01 13:10:01;;;;;;;1.47;0.63;;;;;;;;;;4915156;29;20464;-69
2023/08/01 13:12:28;;;;;;;1.40;0.80;;;;;;;;;;4917322;29;20461;-69
2023/08/01 13:14:56;;;;;;;1.30;0.50;;;;;;;;;;4909011;29;20555;-69
2023/08/01 13:17:24;;;;;;;1.60;0.50;;;;;;;;;;4919222;29;20488;-69
2023/08/01 13:19:51;;;;;;;1.80;0.73;;;;;;;;;;4908074;29;20981;-70
2023/08/01 13:22:18;;;;;;;1.30;0.63;;;;;;;;;;4914505;29;20475;-70
2023/08/01 13:24:47;;;;;;;1.50;0.80;;;;;;;;;;4911529;29;20460;-70
2023/08/01 13:27:14;;;;;;;2.40;0.77;;;;;;;;;;4915166;29;21395;-69
2023/08/01 13:29:41;;;;;;;1.93;0.77;;;;;;;;;;4913373;29;20528;-70
2023/08/01 13:32:08;;;;;;;1.90;0.70;;;;;;;;;;4913753;29;20487;-70
2023/08/01 13:34:37;;;;;;;1.30;0.60;;;;;;;;;;4914468;29;20456;-70
2023/08/01 13:37:04;;;;;;;1.80;0.90;;;;;;;;;;4917729;29;20570;-69
2023/08/01 13:39:31;;;;;;;1.53;0.70;;;;;;;;;;4905270;29;20551;-71
2023/08/01 13:41:59;;;;;;;1.67;0.70;;;;;;;;;;4907963;29;20908;-70
2023/08/01 13:44:26;;;;;;;1.53;0.60;;;;;;;;;;4910162;29;20477;-70
2023/08/01 13:46:53;;;;;;;1.50;0.60;;;;;;;;;;4915175;29;20476;-70
2023/08/01 13:49:20;;;;;;;2.03;1.00;;;;;;;;;;4911837;29;21721;-70
2023/08/01 13:51:49;;;;;;;1.60;0.80;;;;;;;;;;4917629;29;20913;-70
2023/08/01 13:54:16;;;;;;;1.63;0.73;;;;;;;;;;4912445;29;20524;-69
2023/08/01 13:56:43;;;;;;;2.00;0.93;;;;;;;;;;4914364;29;20563;-70
2023/08/01 13:59:10;;;;;;;1.90;1.00;;;;;;;;;;4913961;29;20484;-69
2023/08/01 14:01:38;;;;;;;1.50;0.70;;;;;;;;;;4913601;29;20476;-70
2023/08/01 14:04:05;;;;;;;1.53;0.63;;;;;;;;;;4916918;29;20829;-70
2023/08/01 14:06:32;;;;;;;2.63;1.10;;;;;;;;;;4919277;29;20909;-69
2023/08/01 14:09:01;;;;;;;1.70;0.80;;;;;;;;;;4912444;29;21011;-69
2023/08/01 14:11:28;;;;;;;2.00;0.83;;;;;;;;;;4914142;29;20469;-70
2023/08/01 14:13:55;;;;;;;2.00;1.00;;;;;;;;;;4912126;29;21007;-70
2023/08/01 14:16:22;;;;;;;1.80;0.90;;;;;;;;;;4911295;29;20482;-70
2023/08/01 14:18:50;;;;;;;1.60;0.70;;;;;;;;;;4914890;29;20512;-69
2023/08/01 14:21:17;;;;;;;1.97;0.90;;;;;;;;;;4909478;29;20567;-70
2023/08/01 14:23:45;;;;;;;2.27;0.73;;;;;;;;;;4912687;29;20492;-69
2023/08/01 14:26:13;;;;;;;1.80;0.70;;;;;;;;;;4907018;29;20568;-70
2023/08/01 14:28:41;;;;;;;2.00;1.00;;;;;;;;;;4910984;29;20460;-70
2023/08/01 14:31:08;;;;;;;3.00;0.90;;;;;;;;;;4905676;29;20879;-69
2023/08/01 14:33:35;;;;;;;1.83;0.70;;;;;;;;;;4920558;29;20473;-69
2023/08/01 14:36:02;;;;;;;1.90;0.63;;;;;;;;;;4914751;29;20570;-70
2023/08/01 14:38:29;;;;;;;1.40;0.80;;;;;;;;;;4919229;29;20564;-69
2023/08/01 14:40:57;;;;;;;1.70;0.67;;;;;;;;;;4910320;29;20571;-68
2023/08/01 14:43:26;;;;;;;1.40;0.70;;;;;;;;;;4909516;29;20567;-69
2023/08/01 14:45:53;;;;;;;2.70;1.07;;;;;;;;;;4911391;29;20531;-70